Four Mile, Illinois
Current Conditions -  °F | °C
As of 2:15 AM on Friday 19 Dec 2014 (Local Time) from KFWC Reporting Station
Overcast Overcast  
Wind Chill: 29°   Ceiling: 5000
Heat Index: 29°   Visibility: 7mi
Dew Point: 27°   Wind: 0mph
Humidity: 92%   Direction: NA
Pressure: 30.28"   Gusts: NA
Location:  38.3069°N, 88.55°W
Report Text: KFWC 190815Z AUTO 00000KT 7SM OVC050 M02/M03 A3028 RMK AO1 T10191030
Loading
Personal Weather Stations






























Interactive Weather Map New forecast layout! Learn more

10-Day Weather Forecast

Advertisements
Track Severe Weather on mobile